Time;durP1;ratioP1;P1;durP2;ratioP2;P2;SDS_P1;SDS_P2;PMS_P1;PMS_P2;Temp;Humidity;BMP_temperature;BMP_pressure;BME280_temperature;BME280_humidity;BME280_pressure;Samples;Min_cycle;Max_cycle;Signal;HPM_P1;HPM_P2
2022/10/31 00:01:29;;;;;;;41.35;21.35;;;;;;;;;;5072264;28;20238;-68
2022/10/31 00:03:54;;;;;;;41.85;20.20;;;;;;;;;;5086054;28;20188;-68
2022/10/31 00:06:21;;;;;;;39.67;21.88;;;;;;;;;;5077550;28;20615;-68
2022/10/31 00:08:47;;;;;;;37.15;19.90;;;;;;;;;;5076431;28;20241;-68
2022/10/31 00:11:13;;;;;;;35.97;20.45;;;;;;;;;;5088607;28;20697;-68
2022/10/31 00:13:38;;;;;;;30.77;18.48;;;;;;;;;;5089574;28;20227;-68
2022/10/31 00:16:04;;;;;;;29.70;19.33;;;;;;;;;;5087077;28;20216;-68
2022/10/31 00:18:30;;;;;;;33.28;19.13;;;;;;;;;;5085852;28;20496;-68
2022/10/31 00:20:59;;;;;;;30.58;17.80;;;;;;;;;;5083230;28;20194;-68
2022/10/31 00:23:25;;;;;;;31.67;18.70;;;;;;;;;;5080663;28;20187;-68
2022/10/31 00:25:50;;;;;;;35.67;18.63;;;;;;;;;;5089563;28;20652;-68
2022/10/31 00:28:15;;;;;;;32.60;18.83;;;;;;;;;;5078721;28;20187;-68
2022/10/31 00:30:41;;;;;;;33.22;19.75;;;;;;;;;;5077408;28;20730;-68
2022/10/31 00:33:06;;;;;;;30.05;18.65;;;;;;;;;;5087242;28;20196;-68
2022/10/31 00:35:32;;;;;;;35.00;18.17;;;;;;;;;;5087620;28;20168;-68
2022/10/31 00:37:57;;;;;;;28.75;16.23;;;;;;;;;;5088033;28;20200;-68
2022/10/31 00:40:22;;;;;;;30.05;18.25;;;;;;;;;;5084119;28;20202;-68
2022/10/31 00:42:48;;;;;;;29.45;18.00;;;;;;;;;;5088959;28;20176;-68
2022/10/31 00:45:13;;;;;;;28.15;16.85;;;;;;;;;;5073730;28;20192;-68
2022/10/31 00:47:38;;;;;;;38.92;18.27;;;;;;;;;;5082865;28;20460;-68
2022/10/31 00:50:05;;;;;;;31.98;16.70;;;;;;;;;;5073385;28;20203;-68
2022/10/31 00:52:30;;;;;;;26.60;16.80;;;;;;;;;;5076075;28;20333;-68
2022/10/31 00:54:56;;;;;;;33.95;17.73;;;;;;;;;;5071202;28;20216;-68
2022/10/31 00:57:21;;;;;;;35.38;17.55;;;;;;;;;;5080673;28;20226;-68
2022/10/31 00:59:46;;;;;;;28.15;17.98;;;;;;;;;;5079937;28;20220;-68
2022/10/31 01:02:12;;;;;;;24.67;15.90;;;;;;;;;;5069042;28;20184;-68
2022/10/31 01:04:37;;;;;;;26.88;15.80;;;;;;;;;;5079119;28;20180;-68
2022/10/31 01:07:02;;;;;;;24.35;15.35;;;;;;;;;;5075067;28;20173;-68
2022/10/31 01:09:28;;;;;;;26.98;15.55;;;;;;;;;;5073179;28;20181;-68
2022/10/31 01:11:53;;;;;;;29.90;15.65;;;;;;;;;;5075325;28;20621;-68
2022/10/31 01:14:18;;;;;;;24.75;13.82;;;;;;;;;;5076179;28;20554;-68
2022/10/31 01:16:44;;;;;;;27.58;14.68;;;;;;;;;;5076130;28;20683;-68
2022/10/31 01:19:09;;;;;;;29.05;15.48;;;;;;;;;;5075169;28;20245;-68
2022/10/31 01:21:34;;;;;;;23.25;13.75;;;;;;;;;;5076666;28;20724;-68
2022/10/31 01:24:01;;;;;;;30.70;14.65;;;;;;;;;;5078978;28;20270;-68
2022/10/31 01:26:30;;;;;;;30.35;16.80;;;;;;;;;;5079179;28;20643;-68
2022/10/31 01:28:58;;;;;;;27.30;16.63;;;;;;;;;;5076000;28;20172;-68
2022/10/31 01:31:26;;;;;;;24.55;15.95;;;;;;;;;;5075619;28;20228;-68
2022/10/31 01:33:51;;;;;;;24.15;14.57;;;;;;;;;;5079244;28;20270;-68
2022/10/31 01:36:18;;;;;;;23.00;13.80;;;;;;;;;;5079706;28;20638;-68
2022/10/31 01:38:46;;;;;;;25.75;14.45;;;;;;;;;;5084145;28;20612;-68
2022/10/31 01:41:14;;;;;;;25.75;15.35;;;;;;;;;;5081691;28;20188;-68
2022/10/31 01:43:56;;;;;;;25.05;14.30;;;;;;;;;;5079099;28;20195;-68
2022/10/31 01:46:34;;;;;;;21.85;13.68;;;;;;;;;;5082773;28;20176;-68
2022/10/31 01:49:03;;;;;;;27.77;14.65;;;;;;;;;;5082158;28;20270;-68
2022/10/31 01:51:36;;;;;;;29.45;15.70;;;;;;;;;;5070066;28;20285;-68
2022/10/31 01:54:05;;;;;;;31.58;14.82;;;;;;;;;;5080226;28;20183;-68
2022/10/31 01:56:33;;;;;;;29.13;14.88;;;;;;;;;;5080311;28;20215;-68
2022/10/31 01:59:01;;;;;;;26.80;14.48;;;;;;;;;;5080505;28;20172;-68
2022/10/31 02:01:27;;;;;;;28.48;15.02;;;;;;;;;;5076435;28;20659;-68
2022/10/31 02:03:52;;;;;;;20.52;13.02;;;;;;;;;;5081339;28;20255;-68
2022/10/31 02:06:42;;;;;;;20.15;13.77;;;;;;;;;;5072127;28;20194;-68
2022/10/31 02:09:07;;;;;;;23.75;14.02;;;;;;;;;;5071112;28;20197;-68
2022/10/31 02:11:35;;;;;;;23.45;13.50;;;;;;;;;;5074967;28;20535;-68
2022/10/31 02:14:01;;;;;;;24.15;13.90;;;;;;;;;;5084633;28;20747;-68
2022/10/31 02:16:26;;;;;;;23.75;14.60;;;;;;;;;;5085126;28;20215;-68
2022/10/31 02:18:52;;;;;;;24.33;13.40;;;;;;;;;;5080845;28;20223;-68
2022/10/31 02:21:29;;;;;;;20.00;12.57;;;;;;;;;;5077101;28;20286;-68
2022/10/31 02:24:07;;;;;;;22.92;12.18;;;;;;;;;;5074842;28;20206;-68
2022/10/31 02:26:46;;;;;;;23.45;13.23;;;;;;;;;;5074945;28;20212;-68
2022/10/31 02:29:29;;;;;;;24.27;13.70;;;;;;;;;;5066888;28;20202;-68
2022/10/31 02:32:00;;;;;;;27.90;15.05;;;;;;;;;;5077493;28;20248;-69
2022/10/31 02:34:56;;;;;;;24.15;14.70;;;;;;;;;;5077976;28;20185;-68
2022/10/31 02:37:39;;;;;;;24.98;13.07;;;;;;;;;;5076551;28;20318;-68
2022/10/31 02:40:27;;;;;;;21.92;12.77;;;;;;;;;;5082518;28;20180;-68
2022/10/31 02:42:59;;;;;;;26.52;13.35;;;;;;;;;;5076336;28;20190;-67
2022/10/31 02:45:41;;;;;;;22.23;12.80;;;;;;;;;;5087960;28;20639;-67
2022/10/31 02:48:18;;;;;;;21.63;12.68;;;;;;;;;;5078110;28;20189;-68
2022/10/31 02:50:49;;;;;;;20.40;13.38;;;;;;;;;;5082929;28;20521;-68
2022/10/31 02:53:16;;;;;;;20.77;13.20;;;;;;;;;;5087420;28;20680;-68
2022/10/31 02:55:59;;;;;;;22.27;13.25;;;;;;;;;;5089154;28;20207;-68
2022/10/31 02:58:29;;;;;;;20.63;13.50;;;;;;;;;;5085868;28;20169;-68
2022/10/31 03:00:54;;;;;;;24.55;13.55;;;;;;;;;;5084836;28;20524;-68
2022/10/31 03:03:33;;;;;;;19.88;13.65;;;;;;;;;;5076615;28;20223;-68
2022/10/31 03:06:31;;;;;;;21.75;13.55;;;;;;;;;;5088843;28;20433;-68
2022/10/31 03:09:07;;;;;;;18.48;12.45;;;;;;;;;;5073091;28;20287;-68
2022/10/31 03:11:57;;;;;;;24.27;13.27;;;;;;;;;;5082316;28;20184;-68
2022/10/31 03:14:32;;;;;;;22.00;13.95;;;;;;;;;;5072553;28;20263;-68
2022/10/31 03:17:02;;;;;;;22.75;14.10;;;;;;;;;;5079370;28;20697;-68
2022/10/31 03:19:35;;;;;;;22.98;13.35;;;;;;;;;;5085224;28;20230;-68
2022/10/31 03:22:15;;;;;;;24.08;13.10;;;;;;;;;;5076750;28;20187;-69
2022/10/31 03:24:41;;;;;;;22.60;13.32;;;;;;;;;;5087911;28;20188;-68
2022/10/31 03:27:11;;;;;;;19.35;13.77;;;;;;;;;;5080222;28;20660;-68
2022/10/31 03:29:39;;;;;;;22.85;13.18;;;;;;;;;;5075478;28;20180;-68
2022/10/31 03:32:10;;;;;;;25.40;14.30;;;;;;;;;;5084787;28;20238;-68
2022/10/31 03:34:39;;;;;;;24.40;13.82;;;;;;;;;;5078579;28;20184;-68
2022/10/31 03:37:07;;;;;;;21.60;13.02;;;;;;;;;;5088404;28;20320;-68
2022/10/31 03:39:34;;;;;;;23.80;12.80;;;;;;;;;;5075801;28;20189;-68
2022/10/31 03:42:27;;;;;;;15.05;11.02;;;;;;;;;;5081783;28;20274;-68
2022/10/31 03:45:16;;;;;;;22.27;11.85;;;;;;;;;;5083830;28;20211;-68
2022/10/31 03:47:43;;;;;;;20.52;11.60;;;;;;;;;;5083434;28;20180;-68
2022/10/31 03:50:11;;;;;;;21.90;12.23;;;;;;;;;;5089733;28;20576;-68
2022/10/31 03:52:48;;;;;;;21.77;12.05;;;;;;;;;;5082140;28;20516;-68
2022/10/31 03:55:27;;;;;;;21.92;11.82;;;;;;;;;;5077106;28;20283;-69
2022/10/31 03:58:00;;;;;;;17.95;10.05;;;;;;;;;;5080903;28;20298;-68
2022/10/31 04:00:25;;;;;;;13.95;9.27;;;;;;;;;;5072708;28;20181;-68
2022/10/31 04:02:59;;;;;;;15.25;9.95;;;;;;;;;;5089201;28;20680;-68
2022/10/31 04:05:26;;;;;;;15.40;8.80;;;;;;;;;;5077051;28;20202;-68
2022/10/31 04:07:54;;;;;;;13.60;8.85;;;;;;;;;;5080527;28;20173;-68
2022/10/31 04:10:22;;;;;;;15.80;9.18;;;;;;;;;;5078591;28;20244;-68
2022/10/31 04:12:55;;;;;;;16.08;9.45;;;;;;;;;;5079153;28;20724;-68
2022/10/31 04:15:23;;;;;;;13.88;7.93;;;;;;;;;;5081224;28;20176;-68
2022/10/31 04:17:52;;;;;;;15.98;8.57;;;;;;;;;;5081524;28;20201;-68
2022/10/31 04:20:18;;;;;;;17.77;10.13;;;;;;;;;;5080769;28;20184;-68
2022/10/31 04:22:44;;;;;;;30.83;12.13;;;;;;;;;;5080533;28;20245;-68
2022/10/31 04:25:09;;;;;;;26.38;13.10;;;;;;;;;;5077475;28;20181;-68
2022/10/31 04:27:34;;;;;;;19.45;12.13;;;;;;;;;;5079997;28;20221;-68
2022/10/31 04:30:00;;;;;;;19.55;10.88;;;;;;;;;;5080973;28;20180;-68
2022/10/31 04:32:25;;;;;;;19.50;9.52;;;;;;;;;;5074751;28;20205;-67
2022/10/31 04:34:51;;;;;;;14.23;8.30;;;;;;;;;;5073604;28;20171;-68
2022/10/31 04:37:16;;;;;;;18.30;8.75;;;;;;;;;;5070379;28;20279;-68
2022/10/31 04:39:41;;;;;;;20.38;8.20;;;;;;;;;;5070028;28;20525;-68
2022/10/31 04:42:07;;;;;;;12.18;7.45;;;;;;;;;;5070684;28;20193;-68
2022/10/31 04:44:32;;;;;;;11.98;6.70;;;;;;;;;;5076841;28;20256;-68
2022/10/31 04:46:57;;;;;;;11.25;6.28;;;;;;;;;;5074295;28;20263;-68
2022/10/31 04:49:23;;;;;;;9.52;5.78;;;;;;;;;;5078672;28;20692;-69
2022/10/31 04:51:48;;;;;;;11.18;6.00;;;;;;;;;;5076131;28;20344;-68
2022/10/31 04:54:13;;;;;;;10.27;5.80;;;;;;;;;;5085539;28;20514;-69
2022/10/31 04:56:39;;;;;;;10.63;6.50;;;;;;;;;;5080504;28;20201;-68
2022/10/31 04:59:04;;;;;;;13.38;6.43;;;;;;;;;;5073541;28;20186;-68
2022/10/31 05:01:29;;;;;;;9.80;5.97;;;;;;;;;;5067381;28;20268;-68
2022/10/31 05:03:55;;;;;;;8.38;4.70;;;;;;;;;;5085052;28;20241;-68
2022/10/31 05:06:20;;;;;;;7.20;4.75;;;;;;;;;;5078283;28;20184;-68
2022/10/31 05:08:45;;;;;;;7.55;4.72;;;;;;;;;;5077928;28;20695;-68
2022/10/31 05:11:11;;;;;;;5.20;4.30;;;;;;;;;;5083624;28;20181;-68
2022/10/31 05:13:36;;;;;;;8.77;4.55;;;;;;;;;;5080531;28;20508;-68
2022/10/31 05:16:02;;;;;;;5.45;4.28;;;;;;;;;;5081765;28;20176;-68
2022/10/31 05:18:27;;;;;;;7.55;4.38;;;;;;;;;;5086359;28;20484;-68
2022/10/31 05:20:53;;;;;;;7.82;4.55;;;;;;;;;;5084082;28;20181;-69
2022/10/31 05:23:18;;;;;;;10.65;4.53;;;;;;;;;;5074908;28;20694;-68
2022/10/31 05:25:43;;;;;;;6.53;4.63;;;;;;;;;;5082045;28;20240;-68
2022/10/31 05:28:09;;;;;;;5.33;4.67;;;;;;;;;;5076829;28;20172;-68
2022/10/31 05:30:34;;;;;;;5.70;5.10;;;;;;;;;;5073692;28;20251;-68
2022/10/31 05:33:00;;;;;;;8.20;5.60;;;;;;;;;;5074808;28;20207;-68
2022/10/31 05:35:30;;;;;;;9.35;5.20;;;;;;;;;;5073760;28;20183;-68
2022/10/31 05:37:57;;;;;;;7.90;5.18;;;;;;;;;;5074347;28;20301;-68
2022/10/31 05:40:24;;;;;;;7.47;4.93;;;;;;;;;;5082102;28;20172;-68
2022/10/31 05:42:54;;;;;;;8.25;5.00;;;;;;;;;;5079698;28;20251;-68
2022/10/31 05:45:20;;;;;;;7.85;5.85;;;;;;;;;;5078899;28;20184;-68
2022/10/31 05:47:53;;;;;;;7.65;5.45;;;;;;;;;;5080429;28;20177;-68
2022/10/31 05:50:19;;;;;;;9.10;5.75;;;;;;;;;;5073165;28;20546;-68
2022/10/31 05:52:44;;;;;;;8.70;6.68;;;;;;;;;;5075717;28;20168;-68
2022/10/31 05:55:09;;;;;;;14.27;7.77;;;;;;;;;;5085226;28;20184;-69
2022/10/31 05:57:35;;;;;;;11.13;7.45;;;;;;;;;;5078646;28;20196;-69
2022/10/31 06:00:00;;;;;;;9.70;7.18;;;;;;;;;;5084706;28;20237;-69
2022/10/31 06:02:26;;;;;;;8.65;6.93;;;;;;;;;;5074232;28;20226;-68
2022/10/31 06:04:52;;;;;;;8.48;6.75;;;;;;;;;;5068640;28;20180;-68
2022/10/31 06:07:17;;;;;;;10.90;7.15;;;;;;;;;;5070848;28;20263;-69
2022/10/31 06:09:42;;;;;;;10.60;6.85;;;;;;;;;;5072260;28;20526;-68
2022/10/31 06:12:08;;;;;;;10.07;6.80;;;;;;;;;;5068113;28;20264;-68
2022/10/31 06:14:33;;;;;;;10.30;6.70;;;;;;;;;;5074643;28;20253;-68
2022/10/31 06:16:58;;;;;;;10.93;7.50;;;;;;;;;;5071013;28;20697;-68
2022/10/31 06:19:24;;;;;;;12.35;6.90;;;;;;;;;;5080560;28;20182;-68
2022/10/31 06:21:49;;;;;;;8.90;6.43;;;;;;;;;;5090386;28;20191;-68
2022/10/31 06:24:14;;;;;;;14.90;7.35;;;;;;;;;;5086053;28;20190;-68
2022/10/31 06:26:40;;;;;;;14.48;6.15;;;;;;;;;;5083515;28;20179;-68
2022/10/31 06:29:06;;;;;;;9.95;6.75;;;;;;;;;;5084646;28;20204;-68
2022/10/31 06:31:31;;;;;;;11.85;6.43;;;;;;;;;;5069209;28;20290;-68
2022/10/31 06:33:56;;;;;;;12.20;6.90;;;;;;;;;;5079392;28;20169;-68
2022/10/31 06:36:22;;;;;;;9.57;7.43;;;;;;;;;;5069675;28;20204;-68
2022/10/31 06:38:47;;;;;;;11.10;7.50;;;;;;;;;;5075702;28;20173;-68
2022/10/31 06:41:12;;;;;;;16.48;8.38;;;;;;;;;;5082476;28;20220;-68
2022/10/31 06:43:37;;;;;;;13.80;8.82;;;;;;;;;;5071913;28;20522;-68
2022/10/31 06:46:04;;;;;;;15.50;8.57;;;;;;;;;;5071511;28;20187;-69
2022/10/31 06:48:30;;;;;;;12.25;7.82;;;;;;;;;;5079375;28;20219;-69
2022/10/31 06:50:59;;;;;;;14.27;7.97;;;;;;;;;;5077983;28;20207;-68
2022/10/31 06:53:25;;;;;;;12.55;8.85;;;;;;;;;;5072641;28;20196;-68
2022/10/31 06:55:50;;;;;;;21.73;8.45;;;;;;;;;;5078107;28;20426;-68
2022/10/31 06:58:16;;;;;;;14.48;9.23;;;;;;;;;;5078233;28;20227;-68
2022/10/31 07:00:41;;;;;;;14.85;8.98;;;;;;;;;;5077180;28;20212;-68
2022/10/31 07:03:11;;;;;;;15.55;9.27;;;;;;;;;;5080786;28;20173;-68
2022/10/31 07:05:36;;;;;;;21.88;10.60;;;;;;;;;;5082618;28;20211;-69
2022/10/31 07:08:05;;;;;;;16.65;10.23;;;;;;;;;;5076422;28;20584;-68
2022/10/31 07:10:32;;;;;;;16.00;11.15;;;;;;;;;;5081441;28;20728;-68
2022/10/31 07:13:00;;;;;;;18.00;11.65;;;;;;;;;;5083042;28;20177;-68
2022/10/31 07:15:27;;;;;;;19.80;11.10;;;;;;;;;;5083843;28;20252;-68
2022/10/31 07:17:53;;;;;;;18.55;10.05;;;;;;;;;;5085639;28;20203;-67
2022/10/31 07:20:18;;;;;;;18.90;12.32;;;;;;;;;;5080240;28;20180;-67
2022/10/31 07:22:44;;;;;;;16.92;10.77;;;;;;;;;;5080672;28;20671;-67
2022/10/31 07:25:10;;;;;;;16.67;9.88;;;;;;;;;;5073601;28;20349;-67
2022/10/31 07:27:41;;;;;;;11.27;8.32;;;;;;;;;;5078394;28;20184;-67
2022/10/31 07:30:08;;;;;;;12.55;8.45;;;;;;;;;;5079668;28;20212;-67
2022/10/31 07:32:45;;;;;;;16.92;8.55;;;;;;;;;;5074157;28;20567;-67
2022/10/31 07:35:16;;;;;;;13.90;9.23;;;;;;;;;;5074867;28;20250;-67
2022/10/31 07:37:42;;;;;;;14.65;9.73;;;;;;;;;;5071843;28;20236;-67
2022/10/31 07:40:09;;;;;;;15.75;11.45;;;;;;;;;;5075185;28;20184;-67
2022/10/31 07:42:38;;;;;;;15.98;10.38;;;;;;;;;;5073536;28;20180;-68
2022/10/31 07:45:05;;;;;;;18.67;11.68;;;;;;;;;;5072351;28;20173;-68
2022/10/31 07:47:44;;;;;;;17.55;11.55;;;;;;;;;;5068796;28;20177;-68
2022/10/31 07:50:13;;;;;;;18.83;12.43;;;;;;;;;;5075579;28;20643;-67
2022/10/31 07:52:38;;;;;;;20.55;13.52;;;;;;;;;;5070388;28;20199;-67
2022/10/31 07:55:05;;;;;;;19.08;13.57;;;;;;;;;;5070953;28;20173;-67
2022/10/31 07:57:30;;;;;;;24.63;14.48;;;;;;;;;;5072951;28;20204;-67
2022/10/31 07:59:55;;;;;;;24.92;17.63;;;;;;;;;;5068792;28;20199;-67
2022/10/31 08:02:21;;;;;;;23.80;15.88;;;;;;;;;;5069120;28;20428;-67
2022/10/31 08:04:47;;;;;;;32.20;18.33;;;;;;;;;;5071732;28;21170;-70
2022/10/31 08:07:12;;;;;;;31.30;18.75;;;;;;;;;;5073906;28;20187;-67
2022/10/31 08:09:37;;;;;;;28.92;19.10;;;;;;;;;;5071246;28;20188;-67
2022/10/31 08:12:03;;;;;;;36.10;21.80;;;;;;;;;;5085125;28;20225;-67
2022/10/31 08:14:28;;;;;;;34.88;22.38;;;;;;;;;;5076422;28;20177;-67
2022/10/31 08:16:54;;;;;;;44.08;24.75;;;;;;;;;;5079990;28;20254;-68
2022/10/31 08:19:20;;;;;;;51.22;28.80;;;;;;;;;;5075063;28;20173;-68
2022/10/31 08:21:45;;;;;;;59.83;29.90;;;;;;;;;;5067132;28;20184;-68
2022/10/31 08:24:10;;;;;;;57.85;31.10;;;;;;;;;;5068433;28;20778;-68
2022/10/31 08:26:36;;;;;;;54.10;29.83;;;;;;;;;;5070878;28;20175;-68
2022/10/31 08:29:01;;;;;;;64.85;31.77;;;;;;;;;;5073202;28;20591;-68
2022/10/31 08:31:27;;;;;;;63.53;34.80;;;;;;;;;;5069841;28;20220;-67
2022/10/31 08:33:53;;;;;;;66.90;35.22;;;;;;;;;;5071155;28;20192;-68
2022/10/31 08:36:19;;;;;;;61.35;33.53;;;;;;;;;;5067145;28;20727;-68
2022/10/31 08:38:47;;;;;;;65.95;35.20;;;;;;;;;;5070574;28;20617;-67
2022/10/31 08:41:14;;;;;;;64.43;33.45;;;;;;;;;;5070856;28;20213;-68
2022/10/31 08:43:39;;;;;;;61.88;34.92;;;;;;;;;;5068182;28;20188;-68
2022/10/31 08:46:05;;;;;;;64.60;34.50;;;;;;;;;;5069182;28;20180;-68
2022/10/31 08:48:31;;;;;;;68.07;35.20;;;;;;;;;;5067636;28;20173;-68
2022/10/31 08:50:58;;;;;;;64.75;35.00;;;;;;;;;;5068761;28;20177;-68
2022/10/31 08:53:24;;;;;;;68.32;36.80;;;;;;;;;;5069336;28;20188;-68
2022/10/31 08:55:50;;;;;;;64.13;35.63;;;;;;;;;;5071569;28;20176;-68
2022/10/31 08:58:17;;;;;;;62.60;34.45;;;;;;;;;;5072641;28;20219;-68
2022/10/31 09:00:44;;;;;;;59.15;32.95;;;;;;;;;;5068272;28;20254;-68
2022/10/31 09:03:12;;;;;;;62.03;33.83;;;;;;;;;;5067878;28;20734;-68
2022/10/31 09:05:38;;;;;;;59.25;32.70;;;;;;;;;;5070586;28;20180;-68
2022/10/31 09:08:05;;;;;;;57.88;33.00;;;;;;;;;;5069261;28;20172;-68
2022/10/31 09:10:33;;;;;;;57.70;32.88;;;;;;;;;;5069200;28;20246;-68
2022/10/31 09:13:06;;;;;;;54.70;31.05;;;;;;;;;;5071946;28;20651;-68
2022/10/31 09:15:32;;;;;;;59.05;32.15;;;;;;;;;;5074264;28;20184;-68
2022/10/31 09:17:57;;;;;;;58.13;31.33;;;;;;;;;;5067151;28;20213;-68
2022/10/31 09:20:23;;;;;;;48.40;28.42;;;;;;;;;;5067464;28;20225;-68
2022/10/31 09:22:56;;;;;;;43.95;25.75;;;;;;;;;;5068437;28;20290;-68
2022/10/31 09:25:22;;;;;;;45.15;25.38;;;;;;;;;;5070695;28;20694;-68
2022/10/31 09:27:47;;;;;;;39.92;23.70;;;;;;;;;;5067106;28;20365;-68
2022/10/31 09:30:12;;;;;;;38.08;23.70;;;;;;;;;;5073723;28;20244;-68
2022/10/31 09:32:38;;;;;;;34.25;21.40;;;;;;;;;;5066975;28;20217;-69
2022/10/31 09:35:03;;;;;;;36.13;20.98;;;;;;;;;;5068198;28;20208;-68
2022/10/31 09:37:29;;;;;;;35.17;19.58;;;;;;;;;;5069056;28;20299;-68
2022/10/31 09:39:54;;;;;;;36.35;20.52;;;;;;;;;;5068293;28;20202;-68
2022/10/31 09:42:34;;;;;;;35.13;18.25;;;;;;;;;;5067771;28;20200;-68
2022/10/31 09:45:23;;;;;;;28.70;16.67;;;;;;;;;;5070996;28;20629;-68
2022/10/31 09:47:51;;;;;;;24.52;15.73;;;;;;;;;;5067522;28;20199;-68
2022/10/31 09:50:28;;;;;;;21.63;13.98;;;;;;;;;;5077153;28;20463;-68
2022/10/31 09:53:10;;;;;;;23.80;13.27;;;;;;;;;;5076892;28;20234;-68
2022/10/31 09:55:47;;;;;;;22.02;14.23;;;;;;;;;;5079196;28;20179;-68
2022/10/31 09:58:20;;;;;;;24.77;14.23;;;;;;;;;;5070946;28;20197;-68
2022/10/31 10:00:47;;;;;;;27.92;15.50;;;;;;;;;;5075000;28;20675;-68
2022/10/31 10:03:40;;;;;;;27.85;14.38;;;;;;;;;;5069647;28;20187;-68
2022/10/31 10:06:16;;;;;;;23.25;14.60;;;;;;;;;;5073074;28;20705;-68
2022/10/31 10:08:42;;;;;;;23.65;14.48;;;;;;;;;;5077746;28;20176;-68
2022/10/31 10:11:10;;;;;;;24.05;14.45;;;;;;;;;;5074409;28;20253;-68
2022/10/31 10:13:45;;;;;;;21.17;13.07;;;;;;;;;;5067418;28;20252;-67
2022/10/31 10:16:23;;;;;;;18.92;12.68;;;;;;;;;;5085753;28;20643;-67
2022/10/31 10:19:04;;;;;;;22.67;13.98;;;;;;;;;;5087559;28;20188;-67
2022/10/31 10:21:45;;;;;;;23.48;13.00;;;;;;;;;;5078890;28;20660;-68
2022/10/31 10:24:30;;;;;;;19.60;12.10;;;;;;;;;;5082842;28;20739;-68
2022/10/31 10:27:37;;;;;;;22.77;12.20;;;;;;;;;;5076272;28;20181;-68
2022/10/31 10:30:29;;;;;;;16.35;10.25;;;;;;;;;;5070006;28;20184;-68
2022/10/31 10:32:59;;;;;;;18.58;11.55;;;;;;;;;;5084588;28;20192;-68
2022/10/31 10:35:31;;;;;;;19.77;11.15;;;;;;;;;;5086353;28;20188;-68
2022/10/31 10:38:02;;;;;;;17.92;10.73;;;;;;;;;;5077821;28;20684;-68
2022/10/31 10:40:29;;;;;;;23.25;11.35;;;;;;;;;;5079596;28;20183;-68
2022/10/31 10:43:32;;;;;;;15.40;8.77;;;;;;;;;;5073546;28;20640;-68
2022/10/31 10:49:19;;;;;;;16.95;8.52;;;;;;;;;;5086517;28;20199;-68
2022/10/31 10:52:19;;;;;;;16.20;8.88;;;;;;;;;;5086842;28;20192;-68
2022/10/31 10:55:15;;;;;;;15.40;9.38;;;;;;;;;;5085710;28;20180;-68
2022/10/31 10:57:53;;;;;;;16.95;10.25;;;;;;;;;;5072216;28;20200;-68
2022/10/31 11:00:29;;;;;;;15.50;9.68;;;;;;;;;;5090865;28;20234;-67
2022/10/31 11:02:55;;;;;;;18.38;10.23;;;;;;;;;;5091619;28;20197;-67
2022/10/31 11:05:35;;;;;;;13.43;8.60;;;;;;;;;;5088798;28;20186;-67
2022/10/31 11:08:01;;;;;;;16.50;7.95;;;;;;;;;;5078100;28;20172;-67
2022/10/31 11:10:27;;;;;;;15.10;7.68;;;;;;;;;;5089512;28;20191;-67
2022/10/31 11:13:15;;;;;;;11.45;7.30;;;;;;;;;;5080056;28;20185;-67
2022/10/31 11:16:12;;;;;;;13.25;8.10;;;;;;;;;;5085905;28;20184;-67
2022/10/31 11:18:41;;;;;;;16.80;7.68;;;;;;;;;;5074729;28;20218;-67
2022/10/31 11:21:20;;;;;;;12.35;7.22;;;;;;;;;;5090001;28;20432;-67
2022/10/31 11:23:46;;;;;;;11.75;7.30;;;;;;;;;;5078229;28;20187;-68
2022/10/31 11:26:20;;;;;;;16.55;7.70;;;;;;;;;;5090079;28;20329;-67
2022/10/31 11:28:56;;;;;;;15.68;7.78;;;;;;;;;;5078806;28;20577;-67
2022/10/31 11:31:21;;;;;;;12.73;6.78;;;;;;;;;;5086762;28;20682;-67
2022/10/31 11:33:50;;;;;;;12.13;7.00;;;;;;;;;;5078727;28;20267;-68
2022/10/31 11:36:30;;;;;;;11.95;7.28;;;;;;;;;;5088710;28;20267;-67
2022/10/31 11:38:58;;;;;;;13.60;6.95;;;;;;;;;;5078088;28;20272;-67
2022/10/31 11:41:26;;;;;;;11.63;6.40;;;;;;;;;;5082705;28;20177;-67
2022/10/31 11:43:58;;;;;;;12.43;6.78;;;;;;;;;;5076159;28;20184;-67
2022/10/31 11:46:37;;;;;;;11.70;5.88;;;;;;;;;;5083417;28;20264;-67
2022/10/31 11:49:05;;;;;;;9.07;5.88;;;;;;;;;;5070908;28;20188;-67
2022/10/31 11:51:33;;;;;;;18.27;7.03;;;;;;;;;;5083968;28;20666;-67
2022/10/31 11:54:02;;;;;;;10.10;5.82;;;;;;;;;;5080397;28;20211;-67
2022/10/31 11:56:36;;;;;;;12.30;6.55;;;;;;;;;;5087669;28;20593;-67
2022/10/31 11:59:05;;;;;;;12.95;6.15;;;;;;;;;;5070268;28;20555;-67
2022/10/31 12:01:32;;;;;;;13.85;6.80;;;;;;;;;;5083529;28;20183;-67
2022/10/31 12:04:06;;;;;;;14.00;6.40;;;;;;;;;;5082651;28;20272;-67
2022/10/31 12:06:37;;;;;;;13.48;7.22;;;;;;;;;;5084268;28;20183;-68
2022/10/31 12:09:20;;;;;;;13.02;7.55;;;;;;;;;;5090231;28;20233;-67
2022/10/31 12:11:58;;;;;;;13.57;6.93;;;;;;;;;;5087107;28;20195;-67
2022/10/31 12:14:42;;;;;;;12.55;8.02;;;;;;;;;;5084104;28;20180;-67
2022/10/31 12:17:16;;;;;;;14.40;8.15;;;;;;;;;;5086400;28;20196;-67
2022/10/31 12:19:46;;;;;;;12.18;6.82;;;;;;;;;;5078136;28;20553;-67
2022/10/31 12:22:23;;;;;;;14.75;7.40;;;;;;;;;;5088291;28;20662;-67
2022/10/31 12:25:07;;;;;;;17.33;7.35;;;;;;;;;;5081786;28;20200;-67
2022/10/31 12:28:02;;;;;;;12.90;7.55;;;;;;;;;;5085908;28;20188;-67
2022/10/31 12:30:46;;;;;;;13.25;7.93;;;;;;;;;;5080410;28;20238;-67
2022/10/31 12:33:26;;;;;;;11.90;7.72;;;;;;;;;;5090004;28;20227;-67
2022/10/31 12:36:14;;;;;;;14.43;7.32;;;;;;;;;;5080195;28;20202;-68
2022/10/31 12:39:01;;;;;;;12.45;7.35;;;;;;;;;;5077520;28;20707;-67
2022/10/31 12:41:34;;;;;;;15.23;7.32;;;;;;;;;;5088028;28;20179;-67
2022/10/31 12:44:17;;;;;;;11.80;6.90;;;;;;;;;;5076971;28;20181;-67
2022/10/31 12:47:18;;;;;;;11.95;6.85;;;;;;;;;;5082380;28;20179;-67
2022/10/31 12:50:21;;;;;;;14.98;6.85;;;;;;;;;;5035471;28;20184;-67
2022/10/31 12:53:24;;;;;;;12.38;6.53;;;;;;;;;;5082294;28;20184;-67
2022/10/31 12:56:12;;;;;;;17.38;7.40;;;;;;;;;;5073302;28;20183;-67
2022/10/31 12:58:53;;;;;;;14.40;7.68;;;;;;;;;;5088222;28;20184;-67
2022/10/31 13:01:22;;;;;;;16.67;8.48;;;;;;;;;;5085425;28;20615;-67
2022/10/31 13:04:05;;;;;;;10.02;6.28;;;;;;;;;;5089725;28;20194;-67
2022/10/31 13:06:38;;;;;;;17.77;8.07;;;;;;;;;;5088149;28;20184;-67
2022/10/31 13:09:11;;;;;;;12.80;7.10;;;;;;;;;;5082069;28;20562;-68
2022/10/31 13:11:51;;;;;;;14.75;7.80;;;;;;;;;;5082299;28;20188;-68
2022/10/31 13:14:36;;;;;;;13.25;7.72;;;;;;;;;;5086123;28;20172;-67
2022/10/31 13:17:03;;;;;;;14.00;7.70;;;;;;;;;;5074575;28;20227;-67
2022/10/31 13:19:34;;;;;;;8.80;6.75;;;;;;;;;;5074804;28;20325;-67
2022/10/31 13:22:18;;;;;;;14.02;7.13;;;;;;;;;;5074988;28;20196;-67
2022/10/31 13:25:13;;;;;;;11.50;7.20;;;;;;;;;;5076038;28;20237;-67
2022/10/31 13:27:46;;;;;;;11.52;7.43;;;;;;;;;;5070304;28;20730;-67
2022/10/31 13:30:39;;;;;;;11.07;7.28;;;;;;;;;;5087980;28;20220;-67
2022/10/31 13:33:09;;;;;;;14.73;7.63;;;;;;;;;;5075105;28;20287;-67
2022/10/31 13:35:49;;;;;;;15.02;8.40;;;;;;;;;;5080494;28;20525;-67
2022/10/31 13:38:18;;;;;;;12.07;7.78;;;;;;;;;;5075983;28;20685;-67
2022/10/31 13:41:04;;;;;;;17.50;9.90;;;;;;;;;;5073864;28;20185;-67
2022/10/31 13:43:40;;;;;;;16.73;9.27;;;;;;;;;;5070559;28;20196;-67
2022/10/31 13:46:25;;;;;;;19.17;11.32;;;;;;;;;;5071729;28;20225;-67
2022/10/31 13:48:51;;;;;;;18.70;11.35;;;;;;;;;;5069540;28;20685;-67
2022/10/31 13:51:28;;;;;;;21.70;12.98;;;;;;;;;;5070372;28;20180;-67
2022/10/31 13:53:58;;;;;;;23.00;13.38;;;;;;;;;;5069834;28;20180;-67
2022/10/31 13:56:30;;;;;;;28.58;14.70;;;;;;;;;;5071448;28;20193;-67
2022/10/31 13:59:09;;;;;;;28.40;16.17;;;;;;;;;;5070264;28;20260;-67
2022/10/31 14:01:36;;;;;;;25.10;15.48;;;;;;;;;;5069001;28;20188;-67
2022/10/31 14:04:07;;;;;;;26.55;15.38;;;;;;;;;;5067736;28;20176;-67
2022/10/31 14:06:40;;;;;;;28.98;16.70;;;;;;;;;;5070895;28;20276;-67
2022/10/31 14:09:43;;;;;;;26.95;17.08;;;;;;;;;;5069066;28;20658;-67
2022/10/31 14:12:37;;;;;;;27.80;16.90;;;;;;;;;;5007739;28;20646;-68
2022/10/31 14:15:19;;;;;;;27.08;16.30;;;;;;;;;;5068856;28;20427;-67
2022/10/31 14:17:54;;;;;;;30.10;17.42;;;;;;;;;;5072174;28;20247;-67
2022/10/31 14:20:29;;;;;;;30.58;18.98;;;;;;;;;;5066433;28;20179;-67
2022/10/31 14:22:54;;;;;;;33.45;18.02;;;;;;;;;;5066781;28;20631;-67
2022/10/31 14:25:36;;;;;;;28.77;18.60;;;;;;;;;;5069790;28;20287;-67
2022/10/31 14:28:19;;;;;;;32.25;18.75;;;;;;;;;;5074725;28;20644;-67
2022/10/31 14:30:53;;;;;;;30.88;18.70;;;;;;;;;;5074798;28;20633;-67
2022/10/31 14:33:20;;;;;;;27.17;18.48;;;;;;;;;;5069559;28;20278;-67
2022/10/31 14:36:12;;;;;;;37.30;20.80;;;;;;;;;;5074639;28;20173;-67
2022/10/31 14:38:55;;;;;;;32.55;19.75;;;;;;;;;;5071124;28;20568;-67
2022/10/31 14:41:43;;;;;;;35.45;20.25;;;;;;;;;;5078009;28;20176;-67
2022/10/31 14:44:37;;;;;;;37.08;21.02;;;;;;;;;;5080217;28;20553;-67
2022/10/31 14:47:27;;;;;;;35.28;20.83;;;;;;;;;;5086942;28;20722;-67
2022/10/31 14:50:18;;;;;;;32.50;21.15;;;;;;;;;;5074952;28;20644;-67
2022/10/31 14:52:48;;;;;;;34.15;21.05;;;;;;;;;;5074098;28;20189;-68